Homestown, Missouri
Current Conditions -  °F | °C
As of 7:53 AM on Saturday 25 Oct 2014 (Local Time) from KHKA Reporting Station
Clear Clear  
Wind Chill: 58°   Ceiling: Unl
Heat Index: 58°   Visibility: 10mi
Dew Point: 55°   Wind: 7mph
Humidity: 90%   Direction: 220°SW
Pressure: 30.07"   Gusts: NA
Location:  36.3524°N, 89.8327°W
Report Text: KHKA 251253Z AUTO 22006KT 10SM CLR 14/13 A3007 RMK AO2 SLP182 T01440128
Loading
Personal Weather Stations






























Interactive Weather Map New forecast layout! Learn more

10-Day Weather Forecast

Advertisements
Track Severe Weather on mobile